sensor_id;sensor_type;location;lat;lon;timestamp;P1;durP1;ratioP1;P2;durP2;ratioP2
10719;SDS011;5411;58.386;15.560;2022-12-07T00:01:41;7.20;;;4.53;;
10719;SDS011;5411;58.386;15.560;2022-12-07T00:04:11;7.13;;;4.07;;
10719;SDS011;5411;58.386;15.560;2022-12-07T00:06:41;6.73;;;4.30;;
10719;SDS011;5411;58.386;15.560;2022-12-07T00:09:11;7.60;;;4.07;;
10719;SDS011;5411;58.386;15.560;2022-12-07T00:11:43;5.47;;;3.77;;
10719;SDS011;5411;58.386;15.560;2022-12-07T00:14:12;10.27;;;4.67;;
10719;SDS011;5411;58.386;15.560;2022-12-07T00:16:43;7.07;;;4.60;;
10719;SDS011;5411;58.386;15.560;2022-12-07T00:19:12;6.57;;;4.13;;
10719;SDS011;5411;58.386;15.560;2022-12-07T00:21:41;6.00;;;3.87;;
10719;SDS011;5411;58.386;15.560;2022-12-07T00:24:10;4.67;;;3.33;;
10719;SDS011;5411;58.386;15.560;2022-12-07T00:26:40;6.17;;;4.30;;
10719;SDS011;5411;58.386;15.560;2022-12-07T00:29:12;7.53;;;3.53;;
10719;SDS011;5411;58.386;15.560;2022-12-07T00:31:42;5.43;;;3.53;;
10719;SDS011;5411;58.386;15.560;2022-12-07T00:34:12;8.27;;;4.10;;
10719;SDS011;5411;58.386;15.560;2022-12-07T00:36:41;9.23;;;4.20;;
10719;SDS011;5411;58.386;15.560;2022-12-07T00:39:09;10.93;;;4.27;;
10719;SDS011;5411;58.386;15.560;2022-12-07T00:41:37;8.00;;;4.07;;
10719;SDS011;5411;58.386;15.560;2022-12-07T00:44:06;5.97;;;3.80;;
10719;SDS011;5411;58.386;15.560;2022-12-07T00:46:35;9.00;;;4.77;;
10719;SDS011;5411;58.386;15.560;2022-12-07T00:49:03;6.97;;;3.87;;
10719;SDS011;5411;58.386;15.560;2022-12-07T00:51:38;11.47;;;5.60;;
10719;SDS011;5411;58.386;15.560;2022-12-07T00:54:06;10.13;;;4.10;;
10719;SDS011;5411;58.386;15.560;2022-12-07T00:56:37;8.73;;;4.60;;
10719;SDS011;5411;58.386;15.560;2022-12-07T00:59:05;6.57;;;4.23;;
10719;SDS011;5411;58.386;15.560;2022-12-07T01:01:34;5.67;;;4.20;;
10719;SDS011;5411;58.386;15.560;2022-12-07T01:04:04;7.00;;;3.87;;
10719;SDS011;5411;58.386;15.560;2022-12-07T01:06:32;4.87;;;3.77;;
10719;SDS011;5411;58.386;15.560;2022-12-07T01:09:00;7.83;;;4.17;;
10719;SDS011;5411;58.386;15.560;2022-12-07T01:11:29;6.17;;;3.80;;
10719;SDS011;5411;58.386;15.560;2022-12-07T01:13:57;6.73;;;4.17;;
10719;SDS011;5411;58.386;15.560;2022-12-07T01:16:28;7.43;;;4.23;;
10719;SDS011;5411;58.386;15.560;2022-12-07T01:18:59;6.80;;;4.23;;
10719;SDS011;5411;58.386;15.560;2022-12-07T01:21:28;7.27;;;3.87;;
10719;SDS011;5411;58.386;15.560;2022-12-07T01:24:01;11.07;;;4.40;;
10719;SDS011;5411;58.386;15.560;2022-12-07T01:26:30;8.33;;;4.10;;
10719;SDS011;5411;58.386;15.560;2022-12-07T01:28:58;6.00;;;4.17;;
10719;SDS011;5411;58.386;15.560;2022-12-07T01:31:27;9.53;;;3.93;;
10719;SDS011;5411;58.386;15.560;2022-12-07T01:33:57;8.93;;;3.67;;
10719;SDS011;5411;58.386;15.560;2022-12-07T01:36:27;5.47;;;3.77;;
10719;SDS011;5411;58.386;15.560;2022-12-07T01:38:58;6.87;;;3.97;;
10719;SDS011;5411;58.386;15.560;2022-12-07T01:41:28;6.50;;;4.47;;
10719;SDS011;5411;58.386;15.560;2022-12-07T01:44:11;7.17;;;4.07;;
10719;SDS011;5411;58.386;15.560;2022-12-07T01:46:50;9.50;;;4.40;;
10719;SDS011;5411;58.386;15.560;2022-12-07T01:49:26;6.63;;;3.77;;
10719;SDS011;5411;58.386;15.560;2022-12-07T01:52:06;5.83;;;3.63;;
10719;SDS011;5411;58.386;15.560;2022-12-07T01:54:42;6.93;;;3.57;;
10719;SDS011;5411;58.386;15.560;2022-12-07T01:57:13;7.83;;;3.73;;
10719;SDS011;5411;58.386;15.560;2022-12-07T01:59:43;7.40;;;4.17;;
10719;SDS011;5411;58.386;15.560;2022-12-07T02:02:15;7.13;;;3.80;;
10719;SDS011;5411;58.386;15.560;2022-12-07T02:04:48;4.90;;;3.57;;
10719;SDS011;5411;58.386;15.560;2022-12-07T02:07:18;5.50;;;3.73;;
10719;SDS011;5411;58.386;15.560;2022-12-07T02:09:47;5.83;;;3.83;;
10719;SDS011;5411;58.386;15.560;2022-12-07T02:12:15;5.87;;;3.53;;
10719;SDS011;5411;58.386;15.560;2022-12-07T02:14:43;6.73;;;4.27;;
10719;SDS011;5411;58.386;15.560;2022-12-07T02:17:13;6.20;;;3.77;;
10719;SDS011;5411;58.386;15.560;2022-12-07T02:23:04;6.30;;;3.30;;
10719;SDS011;5411;58.386;15.560;2022-12-07T02:26:00;7.07;;;3.50;;
10719;SDS011;5411;58.386;15.560;2022-12-07T02:28:59;5.23;;;3.30;;
10719;SDS011;5411;58.386;15.560;2022-12-07T02:31:38;6.57;;;3.47;;
10719;SDS011;5411;58.386;15.560;2022-12-07T02:34:12;5.83;;;3.53;;
10719;SDS011;5411;58.386;15.560;2022-12-07T02:36:49;4.90;;;3.40;;
10719;SDS011;5411;58.386;15.560;2022-12-07T02:39:25;6.43;;;3.17;;
10719;SDS011;5411;58.386;15.560;2022-12-07T02:42:00;8.93;;;3.57;;
10719;SDS011;5411;58.386;15.560;2022-12-07T02:44:36;7.67;;;3.43;;
10719;SDS011;5411;58.386;15.560;2022-12-07T02:47:05;4.73;;;2.93;;
10719;SDS011;5411;58.386;15.560;2022-12-07T02:49:37;5.53;;;4.27;;
10719;SDS011;5411;58.386;15.560;2022-12-07T02:52:06;4.20;;;3.30;;
10719;SDS011;5411;58.386;15.560;2022-12-07T02:54:36;7.40;;;3.87;;
10719;SDS011;5411;58.386;15.560;2022-12-07T02:57:07;8.47;;;3.67;;
10719;SDS011;5411;58.386;15.560;2022-12-07T02:59:54;8.37;;;4.33;;
10719;SDS011;5411;58.386;15.560;2022-12-07T03:02:32;6.27;;;3.73;;
10719;SDS011;5411;58.386;15.560;2022-12-07T03:05:09;4.60;;;3.50;;
10719;SDS011;5411;58.386;15.560;2022-12-07T03:07:49;4.47;;;3.93;;
10719;SDS011;5411;58.386;15.560;2022-12-07T03:10:24;6.37;;;3.80;;
10719;SDS011;5411;58.386;15.560;2022-12-07T03:13:03;7.90;;;4.07;;
10719;SDS011;5411;58.386;15.560;2022-12-07T03:15:42;7.93;;;4.60;;
10719;SDS011;5411;58.386;15.560;2022-12-07T03:18:16;6.00;;;4.00;;
10719;SDS011;5411;58.386;15.560;2022-12-07T03:20:46;8.60;;;4.37;;
10719;SDS011;5411;58.386;15.560;2022-12-07T03:23:18;6.50;;;3.60;;
10719;SDS011;5411;58.386;15.560;2022-12-07T03:25:52;9.70;;;4.10;;
10719;SDS011;5411;58.386;15.560;2022-12-07T03:28:27;5.63;;;3.73;;
10719;SDS011;5411;58.386;15.560;2022-12-07T03:31:02;8.23;;;3.33;;
10719;SDS011;5411;58.386;15.560;2022-12-07T03:33:34;7.80;;;3.67;;
10719;SDS011;5411;58.386;15.560;2022-12-07T03:36:08;8.60;;;3.63;;
10719;SDS011;5411;58.386;15.560;2022-12-07T03:38:44;5.40;;;3.97;;
10719;SDS011;5411;58.386;15.560;2022-12-07T03:41:16;7.03;;;3.53;;
10719;SDS011;5411;58.386;15.560;2022-12-07T03:43:55;4.80;;;3.40;;
10719;SDS011;5411;58.386;15.560;2022-12-07T03:46:27;5.87;;;3.50;;
10719;SDS011;5411;58.386;15.560;2022-12-07T03:49:05;5.40;;;3.60;;
10719;SDS011;5411;58.386;15.560;2022-12-07T03:51:40;7.93;;;4.07;;
10719;SDS011;5411;58.386;15.560;2022-12-07T03:54:14;5.83;;;3.90;;
10719;SDS011;5411;58.386;15.560;2022-12-07T03:56:47;5.50;;;3.63;;
10719;SDS011;5411;58.386;15.560;2022-12-07T03:59:17;8.50;;;3.27;;
10719;SDS011;5411;58.386;15.560;2022-12-07T04:01:52;7.40;;;4.47;;
10719;SDS011;5411;58.386;15.560;2022-12-07T04:04:22;5.10;;;3.17;;
10719;SDS011;5411;58.386;15.560;2022-12-07T04:06:51;5.50;;;3.83;;
10719;SDS011;5411;58.386;15.560;2022-12-07T04:09:19;5.03;;;3.63;;
10719;SDS011;5411;58.386;15.560;2022-12-07T04:11:48;6.50;;;4.07;;
10719;SDS011;5411;58.386;15.560;2022-12-07T04:14:16;6.53;;;3.70;;
10719;SDS011;5411;58.386;15.560;2022-12-07T04:16:46;4.67;;;4.27;;
10719;SDS011;5411;58.386;15.560;2022-12-07T04:19:17;7.83;;;3.70;;
10719;SDS011;5411;58.386;15.560;2022-12-07T04:21:46;4.80;;;3.40;;
10719;SDS011;5411;58.386;15.560;2022-12-07T04:24:15;4.40;;;3.53;;
10719;SDS011;5411;58.386;15.560;2022-12-07T04:26:43;7.47;;;4.10;;
10719;SDS011;5411;58.386;15.560;2022-12-07T04:29:12;7.00;;;3.43;;
10719;SDS011;5411;58.386;15.560;2022-12-07T04:31:41;4.27;;;3.23;;
10719;SDS011;5411;58.386;15.560;2022-12-07T04:34:09;5.90;;;3.10;;
10719;SDS011;5411;58.386;15.560;2022-12-07T04:36:39;5.30;;;3.60;;
10719;SDS011;5411;58.386;15.560;2022-12-07T04:39:08;10.50;;;3.67;;
10719;SDS011;5411;58.386;15.560;2022-12-07T04:41:48;9.13;;;4.10;;
10719;SDS011;5411;58.386;15.560;2022-12-07T04:44:21;8.83;;;3.40;;
10719;SDS011;5411;58.386;15.560;2022-12-07T04:46:58;5.57;;;3.67;;
10719;SDS011;5411;58.386;15.560;2022-12-07T04:49:26;6.53;;;4.17;;
10719;SDS011;5411;58.386;15.560;2022-12-07T04:51:56;4.70;;;3.30;;
10719;SDS011;5411;58.386;15.560;2022-12-07T04:54:24;7.83;;;3.80;;
10719;SDS011;5411;58.386;15.560;2022-12-07T04:56:52;7.23;;;3.37;;
10719;SDS011;5411;58.386;15.560;2022-12-07T04:59:23;4.97;;;2.67;;
10719;SDS011;5411;58.386;15.560;2022-12-07T05:02:00;7.60;;;3.67;;
10719;SDS011;5411;58.386;15.560;2022-12-07T05:04:28;3.73;;;2.80;;
10719;SDS011;5411;58.386;15.560;2022-12-07T05:06:57;8.97;;;2.97;;
10719;SDS011;5411;58.386;15.560;2022-12-07T05:09:25;4.30;;;2.90;;
10719;SDS011;5411;58.386;15.560;2022-12-07T05:11:54;4.17;;;3.20;;
10719;SDS011;5411;58.386;15.560;2022-12-07T05:14:22;5.23;;;2.80;;
10719;SDS011;5411;58.386;15.560;2022-12-07T05:16:50;4.80;;;3.17;;
10719;SDS011;5411;58.386;15.560;2022-12-07T05:19:20;6.10;;;3.33;;
10719;SDS011;5411;58.386;15.560;2022-12-07T05:21:48;3.47;;;2.90;;
10719;SDS011;5411;58.386;15.560;2022-12-07T05:24:17;3.53;;;2.73;;
10719;SDS011;5411;58.386;15.560;2022-12-07T05:26:45;5.23;;;2.63;;
10719;SDS011;5411;58.386;15.560;2022-12-07T05:29:14;6.27;;;2.80;;
10719;SDS011;5411;58.386;15.560;2022-12-07T05:31:44;3.67;;;2.27;;
10719;SDS011;5411;58.386;15.560;2022-12-07T05:34:12;4.93;;;3.20;;
10719;SDS011;5411;58.386;15.560;2022-12-07T05:36:40;4.27;;;2.60;;
10719;SDS011;5411;58.386;15.560;2022-12-07T05:39:08;7.63;;;2.80;;
10719;SDS011;5411;58.386;15.560;2022-12-07T05:41:38;5.13;;;2.53;;
10719;SDS011;5411;58.386;15.560;2022-12-07T05:44:25;4.47;;;3.07;;
10719;SDS011;5411;58.386;15.560;2022-12-07T05:46:53;4.23;;;2.50;;
10719;SDS011;5411;58.386;15.560;2022-12-07T05:49:21;4.23;;;2.90;;
10719;SDS011;5411;58.386;15.560;2022-12-07T05:51:50;4.80;;;2.30;;
10719;SDS011;5411;58.386;15.560;2022-12-07T05:54:22;4.47;;;2.60;;
10719;SDS011;5411;58.386;15.560;2022-12-07T05:56:52;4.00;;;2.80;;
10719;SDS011;5411;58.386;15.560;2022-12-07T05:59:20;5.07;;;2.73;;
10719;SDS011;5411;58.386;15.560;2022-12-07T06:01:51;4.50;;;2.60;;
10719;SDS011;5411;58.386;15.560;2022-12-07T06:04:24;8.97;;;3.10;;
10719;SDS011;5411;58.386;15.560;2022-12-07T06:06:53;5.60;;;2.57;;
10719;SDS011;5411;58.386;15.560;2022-12-07T06:09:26;8.70;;;4.17;;
10719;SDS011;5411;58.386;15.560;2022-12-07T06:11:57;3.43;;;2.83;;
10719;SDS011;5411;58.386;15.560;2022-12-07T06:14:46;5.50;;;2.63;;
10719;SDS011;5411;58.386;15.560;2022-12-07T06:17:14;8.67;;;3.03;;
10719;SDS011;5411;58.386;15.560;2022-12-07T06:19:43;3.73;;;2.70;;
10719;SDS011;5411;58.386;15.560;2022-12-07T06:22:11;5.27;;;3.47;;
10719;SDS011;5411;58.386;15.560;2022-12-07T06:24:40;6.90;;;2.90;;
10719;SDS011;5411;58.386;15.560;2022-12-07T06:27:09;7.60;;;3.27;;
10719;SDS011;5411;58.386;15.560;2022-12-07T06:29:37;10.17;;;3.00;;
10719;SDS011;5411;58.386;15.560;2022-12-07T06:32:08;9.37;;;2.93;;
10719;SDS011;5411;58.386;15.560;2022-12-07T06:34:38;5.80;;;2.27;;
10719;SDS011;5411;58.386;15.560;2022-12-07T06:37:06;4.07;;;2.57;;
10719;SDS011;5411;58.386;15.560;2022-12-07T06:39:34;7.17;;;2.87;;
10719;SDS011;5411;58.386;15.560;2022-12-07T06:42:02;4.27;;;2.70;;
10719;SDS011;5411;58.386;15.560;2022-12-07T06:44:31;6.90;;;3.10;;
10719;SDS011;5411;58.386;15.560;2022-12-07T06:47:01;3.07;;;2.20;;
10719;SDS011;5411;58.386;15.560;2022-12-07T06:49:50;5.53;;;3.17;;
10719;SDS011;5411;58.386;15.560;2022-12-07T06:52:22;8.33;;;3.50;;
10719;SDS011;5411;58.386;15.560;2022-12-07T06:54:49;5.87;;;2.73;;
10719;SDS011;5411;58.386;15.560;2022-12-07T06:57:17;5.93;;;2.77;;
10719;SDS011;5411;58.386;15.560;2022-12-07T06:59:47;10.73;;;3.00;;
10719;SDS011;5411;58.386;15.560;2022-12-07T07:02:16;3.70;;;2.33;;
10719;SDS011;5411;58.386;15.560;2022-12-07T07:04:45;5.13;;;2.47;;
10719;SDS011;5411;58.386;15.560;2022-12-07T07:07:13;4.23;;;2.70;;
10719;SDS011;5411;58.386;15.560;2022-12-07T07:09:41;4.43;;;2.63;;
10719;SDS011;5411;58.386;15.560;2022-12-07T07:12:09;5.87;;;2.80;;
10719;SDS011;5411;58.386;15.560;2022-12-07T07:14:37;6.13;;;2.70;;
10719;SDS011;5411;58.386;15.560;2022-12-07T07:17:07;5.73;;;3.17;;
10719;SDS011;5411;58.386;15.560;2022-12-07T07:19:35;5.17;;;2.93;;
10719;SDS011;5411;58.386;15.560;2022-12-07T07:22:04;5.40;;;3.00;;
10719;SDS011;5411;58.386;15.560;2022-12-07T07:24:32;3.30;;;2.40;;
10719;SDS011;5411;58.386;15.560;2022-12-07T07:27:00;4.67;;;2.70;;
10719;SDS011;5411;58.386;15.560;2022-12-07T07:29:32;5.20;;;2.80;;
10719;SDS011;5411;58.386;15.560;2022-12-07T07:32:00;4.87;;;2.87;;
10719;SDS011;5411;58.386;15.560;2022-12-07T07:34:33;5.63;;;3.27;;
10719;SDS011;5411;58.386;15.560;2022-12-07T07:37:01;6.07;;;2.87;;
10719;SDS011;5411;58.386;15.560;2022-12-07T07:39:29;10.73;;;3.27;;
10719;SDS011;5411;58.386;15.560;2022-12-07T07:41:58;6.17;;;3.00;;
10719;SDS011;5411;58.386;15.560;2022-12-07T07:44:26;4.87;;;2.60;;
10719;SDS011;5411;58.386;15.560;2022-12-07T07:47:00;8.77;;;3.20;;
10719;SDS011;5411;58.386;15.560;2022-12-07T07:49:28;3.97;;;2.50;;
10719;SDS011;5411;58.386;15.560;2022-12-07T07:51:58;4.67;;;2.80;;
10719;SDS011;5411;58.386;15.560;2022-12-07T07:54:27;10.07;;;3.00;;
10719;SDS011;5411;58.386;15.560;2022-12-07T07:56:57;3.50;;;2.73;;
10719;SDS011;5411;58.386;15.560;2022-12-07T07:59:37;8.80;;;2.70;;
10719;SDS011;5411;58.386;15.560;2022-12-07T08:02:05;14.37;;;4.00;;
10719;SDS011;5411;58.386;15.560;2022-12-07T08:04:34;11.43;;;2.80;;
10719;SDS011;5411;58.386;15.560;2022-12-07T08:07:05;11.07;;;3.40;;
10719;SDS011;5411;58.386;15.560;2022-12-07T08:09:34;12.50;;;2.47;;
10719;SDS011;5411;58.386;15.560;2022-12-07T08:12:02;5.70;;;3.00;;
10719;SDS011;5411;58.386;15.560;2022-12-07T08:14:31;6.73;;;2.40;;
10719;SDS011;5411;58.386;15.560;2022-12-07T08:17:00;2.97;;;2.20;;
10719;SDS011;5411;58.386;15.560;2022-12-07T08:19:29;11.63;;;2.57;;
10719;SDS011;5411;58.386;15.560;2022-12-07T08:22:01;5.40;;;2.80;;
10719;SDS011;5411;58.386;15.560;2022-12-07T08:24:37;7.40;;;2.50;;
10719;SDS011;5411;58.386;15.560;2022-12-07T08:27:05;6.83;;;2.97;;
10719;SDS011;5411;58.386;15.560;2022-12-07T08:29:33;4.17;;;2.83;;
10719;SDS011;5411;58.386;15.560;2022-12-07T08:32:01;12.07;;;3.33;;
10719;SDS011;5411;58.386;15.560;2022-12-07T08:34:35;8.93;;;2.10;;
10719;SDS011;5411;58.386;15.560;2022-12-07T08:37:13;6.10;;;3.07;;
10719;SDS011;5411;58.386;15.560;2022-12-07T08:39:42;6.17;;;2.67;;
10719;SDS011;5411;58.386;15.560;2022-12-07T08:42:10;10.67;;;2.83;;
10719;SDS011;5411;58.386;15.560;2022-12-07T08:44:38;8.73;;;2.73;;
10719;SDS011;5411;58.386;15.560;2022-12-07T08:47:07;5.73;;;2.73;;
10719;SDS011;5411;58.386;15.560;2022-12-07T08:49:38;3.40;;;2.30;;
10719;SDS011;5411;58.386;15.560;2022-12-07T08:52:09;6.43;;;3.00;;
10719;SDS011;5411;58.386;15.560;2022-12-07T08:54:37;4.13;;;2.40;;
10719;SDS011;5411;58.386;15.560;2022-12-07T08:57:08;4.97;;;2.93;;
10719;SDS011;5411;58.386;15.560;2022-12-07T08:59:37;3.93;;;2.50;;
10719;SDS011;5411;58.386;15.560;2022-12-07T09:02:05;4.60;;;2.80;;
10719;SDS011;5411;58.386;15.560;2022-12-07T09:04:34;3.97;;;2.70;;
10719;SDS011;5411;58.386;15.560;2022-12-07T09:07:02;2.23;;;2.03;;
10719;SDS011;5411;58.386;15.560;2022-12-07T09:09:31;4.83;;;2.30;;
10719;SDS011;5411;58.386;15.560;2022-12-07T09:11:59;3.63;;;2.67;;
10719;SDS011;5411;58.386;15.560;2022-12-07T09:14:29;5.73;;;2.40;;
10719;SDS011;5411;58.386;15.560;2022-12-07T09:17:04;4.13;;;2.60;;
10719;SDS011;5411;58.386;15.560;2022-12-07T09:19:33;5.03;;;2.70;;
10719;SDS011;5411;58.386;15.560;2022-12-07T09:22:01;5.17;;;2.77;;
10719;SDS011;5411;58.386;15.560;2022-12-07T09:24:31;5.47;;;2.43;;
10719;SDS011;5411;58.386;15.560;2022-12-07T09:27:00;4.07;;;2.53;;
10719;SDS011;5411;58.386;15.560;2022-12-07T09:29:30;3.73;;;2.53;;
10719;SDS011;5411;58.386;15.560;2022-12-07T09:31:58;4.37;;;2.90;;
10719;SDS011;5411;58.386;15.560;2022-12-07T09:34:30;3.87;;;2.57;;
10719;SDS011;5411;58.386;15.560;2022-12-07T09:36:58;4.07;;;2.87;;
10719;SDS011;5411;58.386;15.560;2022-12-07T09:39:33;2.97;;;2.53;;
10719;SDS011;5411;58.386;15.560;2022-12-07T09:42:13;5.17;;;2.43;;
10719;SDS011;5411;58.386;15.560;2022-12-07T09:44:56;6.83;;;2.53;;
10719;SDS011;5411;58.386;15.560;2022-12-07T09:47:27;4.17;;;2.27;;
10719;SDS011;5411;58.386;15.560;2022-12-07T09:49:59;4.33;;;2.57;;
10719;SDS011;5411;58.386;15.560;2022-12-07T09:52:32;8.03;;;3.10;;
10719;SDS011;5411;58.386;15.560;2022-12-07T09:55:07;5.43;;;2.07;;
10719;SDS011;5411;58.386;15.560;2022-12-07T09:57:38;3.33;;;2.40;;
10719;SDS011;5411;58.386;15.560;2022-12-07T10:00:10;4.60;;;2.57;;
10719;SDS011;5411;58.386;15.560;2022-12-07T10:02:41;4.17;;;3.20;;
10719;SDS011;5411;58.386;15.560;2022-12-07T10:05:13;5.40;;;2.67;;
10719;SDS011;5411;58.386;15.560;2022-12-07T10:07:49;3.67;;;2.30;;
10719;SDS011;5411;58.386;15.560;2022-12-07T10:10:19;2.90;;;1.90;;
10719;SDS011;5411;58.386;15.560;2022-12-07T10:13:05;4.03;;;2.07;;
10719;SDS011;5411;58.386;15.560;2022-12-07T10:18:36;3.53;;;1.57;;
10719;SDS011;5411;58.386;15.560;2022-12-07T10:21:09;3.03;;;2.00;;
10719;SDS011;5411;58.386;15.560;2022-12-07T10:23:41;2.50;;;2.10;;
10719;SDS011;5411;58.386;15.560;2022-12-07T10:26:36;5.20;;;2.30;;
10719;SDS011;5411;58.386;15.560;2022-12-07T10:29:14;4.00;;;1.90;;
10719;SDS011;5411;58.386;15.560;2022-12-07T10:31:46;4.77;;;2.37;;
10719;SDS011;5411;58.386;15.560;2022-12-07T10:34:23;9.37;;;2.67;;
10719;SDS011;5411;58.386;15.560;2022-12-07T10:37:16;4.73;;;2.30;;
10719;SDS011;5411;58.386;15.560;2022-12-07T10:39:48;2.77;;;2.57;;
10719;SDS011;5411;58.386;15.560;2022-12-07T10:42:18;2.90;;;1.97;;
10719;SDS011;5411;58.386;15.560;2022-12-07T10:44:47;6.03;;;2.57;;
10719;SDS011;5411;58.386;15.560;2022-12-07T10:47:20;3.53;;;1.97;;
10719;SDS011;5411;58.386;15.560;2022-12-07T10:53:13;2.93;;;2.30;;
10719;SDS011;5411;58.386;15.560;2022-12-07T10:56:26;8.77;;;2.03;;
10719;SDS011;5411;58.386;15.560;2022-12-07T10:59:28;4.07;;;2.13;;
10719;SDS011;5411;58.386;15.560;2022-12-07T11:02:13;5.53;;;2.07;;
10719;SDS011;5411;58.386;15.560;2022-12-07T11:04:55;2.77;;;2.33;;
10719;SDS011;5411;58.386;15.560;2022-12-07T11:07:37;5.57;;;2.77;;
10719;SDS011;5411;58.386;15.560;2022-12-07T11:10:12;3.73;;;2.10;;
10719;SDS011;5411;58.386;15.560;2022-12-07T11:12:49;3.53;;;2.57;;
10719;SDS011;5411;58.386;15.560;2022-12-07T11:15:28;3.77;;;2.40;;
10719;SDS011;5411;58.386;15.560;2022-12-07T11:18:13;4.13;;;2.53;;
10719;SDS011;5411;58.386;15.560;2022-12-07T11:20:50;2.37;;;1.73;;
10719;SDS011;5411;58.386;15.560;2022-12-07T11:23:28;4.97;;;1.87;;
10719;SDS011;5411;58.386;15.560;2022-12-07T11:26:09;4.80;;;2.43;;
10719;SDS011;5411;58.386;15.560;2022-12-07T11:28:53;4.47;;;2.30;;
10719;SDS011;5411;58.386;15.560;2022-12-07T11:31:32;5.83;;;2.07;;
10719;SDS011;5411;58.386;15.560;2022-12-07T11:34:23;4.67;;;2.43;;
10719;SDS011;5411;58.386;15.560;2022-12-07T11:36:58;6.57;;;2.60;;
10719;SDS011;5411;58.386;15.560;2022-12-07T11:39:32;6.70;;;2.23;;
10719;SDS011;5411;58.386;15.560;2022-12-07T11:42:04;5.90;;;2.30;;
10719;SDS011;5411;58.386;15.560;2022-12-07T11:44:37;5.17;;;2.00;;
10719;SDS011;5411;58.386;15.560;2022-12-07T11:47:15;5.20;;;2.30;;
10719;SDS011;5411;58.386;15.560;2022-12-07T11:50:01;7.00;;;2.53;;
10719;SDS011;5411;58.386;15.560;2022-12-07T11:52:43;4.03;;;1.80;;
10719;SDS011;5411;58.386;15.560;2022-12-07T11:55:18;3.90;;;2.27;;
10719;SDS011;5411;58.386;15.560;2022-12-07T11:57:50;4.10;;;1.90;;
10719;SDS011;5411;58.386;15.560;2022-12-07T12:00:22;2.70;;;2.10;;
10719;SDS011;5411;58.386;15.560;2022-12-07T12:02:52;3.07;;;1.67;;
10719;SDS011;5411;58.386;15.560;2022-12-07T12:05:28;4.37;;;2.20;;
10719;SDS011;5411;58.386;15.560;2022-12-07T12:08:01;3.87;;;1.83;;
10719;SDS011;5411;58.386;15.560;2022-12-07T12:11:00;4.97;;;1.80;;
10719;SDS011;5411;58.386;15.560;2022-12-07T12:16:59;3.97;;;1.93;;
10719;SDS011;5411;58.386;15.560;2022-12-07T12:19:40;3.83;;;1.93;;
10719;SDS011;5411;58.386;15.560;2022-12-07T12:22:12;4.27;;;1.83;;
10719;SDS011;5411;58.386;15.560;2022-12-07T12:24:43;6.40;;;2.13;;
10719;SDS011;5411;58.386;15.560;2022-12-07T12:27:17;4.20;;;2.20;;
10719;SDS011;5411;58.386;15.560;2022-12-07T12:30:00;3.37;;;2.23;;
10719;SDS011;5411;58.386;15.560;2022-12-07T12:32:32;6.00;;;2.63;;
10719;SDS011;5411;58.386;15.560;2022-12-07T12:35:22;4.40;;;2.27;;
10719;SDS011;5411;58.386;15.560;2022-12-07T12:40:56;6.77;;;2.60;;
10719;SDS011;5411;58.386;15.560;2022-12-07T12:49:37;4.73;;;2.10;;
10719;SDS011;5411;58.386;15.560;2022-12-07T12:55:19;6.20;;;2.03;;
10719;SDS011;5411;58.386;15.560;2022-12-07T13:07:10;3.07;;;2.00;;
10719;SDS011;5411;58.386;15.560;2022-12-07T13:10:11;2.80;;;1.83;;
10719;SDS011;5411;58.386;15.560;2022-12-07T13:12:55;3.23;;;2.10;;
10719;SDS011;5411;58.386;15.560;2022-12-07T13:15:35;4.37;;;2.50;;
10719;SDS011;5411;58.386;15.560;2022-12-07T13:18:21;4.60;;;2.00;;
10719;SDS011;5411;58.386;15.560;2022-12-07T13:21:02;5.87;;;2.00;;
10719;SDS011;5411;58.386;15.560;2022-12-07T13:24:20;2.83;;;1.83;;
10719;SDS011;5411;58.386;15.560;2022-12-07T13:26:55;2.20;;;2.00;;
10719;SDS011;5411;58.386;15.560;2022-12-07T13:29:25;3.40;;;1.87;;
10719;SDS011;5411;58.386;15.560;2022-12-07T13:31:53;4.37;;;1.70;;
10719;SDS011;5411;58.386;15.560;2022-12-07T13:34:27;4.47;;;2.30;;
10719;SDS011;5411;58.386;15.560;2022-12-07T13:36:59;3.90;;;2.00;;
10719;SDS011;5411;58.386;15.560;2022-12-07T13:39:29;3.83;;;2.07;;
10719;SDS011;5411;58.386;15.560;2022-12-07T13:42:07;1.70;;;1.60;;
10719;SDS011;5411;58.386;15.560;2022-12-07T13:44:43;4.60;;;2.07;;
10719;SDS011;5411;58.386;15.560;2022-12-07T13:47:13;4.53;;;1.80;;
10719;SDS011;5411;58.386;15.560;2022-12-07T13:49:49;5.70;;;2.30;;
10719;SDS011;5411;58.386;15.560;2022-12-07T13:52:20;5.03;;;2.20;;
10719;SDS011;5411;58.386;15.560;2022-12-07T13:54:55;6.63;;;2.47;;
10719;SDS011;5411;58.386;15.560;2022-12-07T13:57:26;2.20;;;1.90;;
10719;SDS011;5411;58.386;15.560;2022-12-07T13:59:57;4.23;;;2.00;;
10719;SDS011;5411;58.386;15.560;2022-12-07T14:02:26;5.83;;;2.10;;
10719;SDS011;5411;58.386;15.560;2022-12-07T14:05:07;2.93;;;2.03;;
10719;SDS011;5411;58.386;15.560;2022-12-07T14:07:47;2.07;;;1.90;;
10719;SDS011;5411;58.386;15.560;2022-12-07T14:10:23;6.70;;;1.90;;
10719;SDS011;5411;58.386;15.560;2022-12-07T14:12:54;2.80;;;1.77;;
10719;SDS011;5411;58.386;15.560;2022-12-07T14:15:23;2.60;;;1.90;;
10719;SDS011;5411;58.386;15.560;2022-12-07T14:17:55;5.07;;;1.90;;
10719;SDS011;5411;58.386;15.560;2022-12-07T14:20:30;2.90;;;2.40;;
10719;SDS011;5411;58.386;15.560;2022-12-07T14:23:00;7.73;;;2.10;;
10719;SDS011;5411;58.386;15.560;2022-12-07T14:25:44;6.33;;;2.43;;
10719;SDS011;5411;58.386;15.560;2022-12-07T14:28:31;5.00;;;2.43;;
10719;SDS011;5411;58.386;15.560;2022-12-07T14:31:00;4.00;;;2.20;;
10719;SDS011;5411;58.386;15.560;2022-12-07T14:33:30;4.03;;;2.23;;
10719;SDS011;5411;58.386;15.560;2022-12-07T14:35:58;2.97;;;2.17;;
10719;SDS011;5411;58.386;15.560;2022-12-07T14:38:26;6.20;;;2.37;;
10719;SDS011;5411;58.386;15.560;2022-12-07T14:40:54;2.73;;;1.70;;
10719;SDS011;5411;58.386;15.560;2022-12-07T14:43:46;3.50;;;1.73;;
10719;SDS011;5411;58.386;15.560;2022-12-07T14:46:35;2.47;;;2.20;;
10719;SDS011;5411;58.386;15.560;2022-12-07T14:49:04;4.63;;;1.67;;
10719;SDS011;5411;58.386;15.560;2022-12-07T14:51:52;5.57;;;2.00;;
10719;SDS011;5411;58.386;15.560;2022-12-07T14:54:40;5.50;;;2.00;;
10719;SDS011;5411;58.386;15.560;2022-12-07T14:57:09;2.87;;;1.90;;
10719;SDS011;5411;58.386;15.560;2022-12-07T14:59:38;4.40;;;1.90;;
10719;SDS011;5411;58.386;15.560;2022-12-07T15:02:11;3.10;;;2.20;;
10719;SDS011;5411;58.386;15.560;2022-12-07T15:04:40;2.53;;;2.03;;
10719;SDS011;5411;58.386;15.560;2022-12-07T15:07:10;5.00;;;2.00;;
10719;SDS011;5411;58.386;15.560;2022-12-07T15:09:43;3.47;;;2.03;;
10719;SDS011;5411;58.386;15.560;2022-12-07T15:12:11;4.83;;;2.00;;
10719;SDS011;5411;58.386;15.560;2022-12-07T15:14:41;4.73;;;2.00;;
10719;SDS011;5411;58.386;15.560;2022-12-07T15:17:09;2.80;;;2.10;;
10719;SDS011;5411;58.386;15.560;2022-12-07T15:19:51;2.80;;;2.27;;
10719;SDS011;5411;58.386;15.560;2022-12-07T15:22:19;2.50;;;2.17;;
10719;SDS011;5411;58.386;15.560;2022-12-07T15:24:47;5.37;;;1.90;;
10719;SDS011;5411;58.386;15.560;2022-12-07T15:27:27;5.43;;;2.10;;
10719;SDS011;5411;58.386;15.560;2022-12-07T15:29:56;3.43;;;2.30;;
10719;SDS011;5411;58.386;15.560;2022-12-07T15:32:24;4.00;;;2.20;;
10719;SDS011;5411;58.386;15.560;2022-12-07T15:34:52;4.43;;;2.20;;
10719;SDS011;5411;58.386;15.560;2022-12-07T15:37:20;2.77;;;2.13;;
10719;SDS011;5411;58.386;15.560;2022-12-07T15:39:48;3.77;;;2.30;;
10719;SDS011;5411;58.386;15.560;2022-12-07T15:42:17;5.83;;;2.57;;
10719;SDS011;5411;58.386;15.560;2022-12-07T15:44:45;3.33;;;2.33;;
10719;SDS011;5411;58.386;15.560;2022-12-07T15:47:36;4.20;;;1.80;;
10719;SDS011;5411;58.386;15.560;2022-12-07T15:50:25;3.73;;;2.17;;
10719;SDS011;5411;58.386;15.560;2022-12-07T15:52:53;3.17;;;2.20;;
10719;SDS011;5411;58.386;15.560;2022-12-07T15:55:22;4.60;;;1.83;;
10719;SDS011;5411;58.386;15.560;2022-12-07T15:57:53;4.57;;;2.20;;